sensor_id;sensor_type;location;lat;lon;timestamp;P1;durP1;ratioP1;P2;durP2;ratioP2
4206;SDS011;2117;47.972;7.830;2023-01-23T02:32:16;22.10;;;14.13;;
4206;SDS011;2117;47.972;7.830;2023-01-23T02:34:43;26.37;;;14.47;;
4206;SDS011;2117;47.972;7.830;2023-01-23T02:37:09;24.70;;;14.50;;
4206;SDS011;2117;47.972;7.830;2023-01-23T02:39:35;23.67;;;15.10;;
4206;SDS011;2117;47.972;7.830;2023-01-23T02:42:01;26.63;;;14.13;;
4206;SDS011;2117;47.972;7.830;2023-01-23T02:44:29;22.13;;;14.13;;
4206;SDS011;2117;47.972;7.830;2023-01-23T02:46:57;23.27;;;13.13;;
4206;SDS011;2117;47.972;7.830;2023-01-23T02:49:25;20.90;;;14.10;;
4206;SDS011;2117;47.972;7.830;2023-01-23T02:51:51;25.60;;;13.70;;
4206;SDS011;2117;47.972;7.830;2023-01-23T02:54:18;19.50;;;12.97;;
4206;SDS011;2117;47.972;7.830;2023-01-23T02:56:44;21.80;;;13.30;;
4206;SDS011;2117;47.972;7.830;2023-01-23T02:59:10;22.23;;;13.47;;
4206;SDS011;2117;47.972;7.830;2023-01-23T03:01:55;23.43;;;14.33;;
4206;SDS011;2117;47.972;7.830;2023-01-23T03:04:21;20.33;;;13.30;;
4206;SDS011;2117;47.972;7.830;2023-01-23T03:06:47;20.13;;;12.57;;
4206;SDS011;2117;47.972;7.830;2023-01-23T03:09:14;20.97;;;12.97;;
4206;SDS011;2117;47.972;7.830;2023-01-23T03:11:41;17.80;;;12.30;;
4206;SDS011;2117;47.972;7.830;2023-01-23T03:14:09;23.10;;;12.93;;
4206;SDS011;2117;47.972;7.830;2023-01-23T03:16:42;19.60;;;13.07;;
4206;SDS011;2117;47.972;7.830;2023-01-23T03:19:13;21.03;;;12.80;;
4206;SDS011;2117;47.972;7.830;2023-01-23T03:21:39;18.27;;;12.17;;
4206;SDS011;2117;47.972;7.830;2023-01-23T03:24:06;19.57;;;12.90;;
4206;SDS011;2117;47.972;7.830;2023-01-23T03:26:39;20.03;;;12.87;;
4206;SDS011;2117;47.972;7.830;2023-01-23T03:29:06;15.57;;;11.00;;
4206;SDS011;2117;47.972;7.830;2023-01-23T03:31:58;15.83;;;11.17;;
4206;SDS011;2117;47.972;7.830;2023-01-23T03:34:24;17.23;;;10.40;;
4206;SDS011;2117;47.972;7.830;2023-01-23T03:36:49;16.77;;;10.83;;
4206;SDS011;2117;47.972;7.830;2023-01-23T03:39:15;14.07;;;10.27;;
4206;SDS011;2117;47.972;7.830;2023-01-23T03:41:58;18.17;;;9.83;;
4206;SDS011;2117;47.972;7.830;2023-01-23T03:44:24;14.97;;;10.23;;
4206;SDS011;2117;47.972;7.830;2023-01-23T03:46:50;15.30;;;9.33;;
4206;SDS011;2117;47.972;7.830;2023-01-23T03:49:16;17.43;;;10.53;;
4206;SDS011;2117;47.972;7.830;2023-01-23T03:51:42;15.60;;;10.50;;
4206;SDS011;2117;47.972;7.830;2023-01-23T03:54:08;15.63;;;9.67;;
4206;SDS011;2117;47.972;7.830;2023-01-23T03:56:33;15.03;;;10.50;;
4206;SDS011;2117;47.972;7.830;2023-01-23T03:58:59;16.27;;;11.50;;
4206;SDS011;2117;47.972;7.830;2023-01-23T04:01:25;17.07;;;9.60;;
4206;SDS011;2117;47.972;7.830;2023-01-23T04:03:50;18.17;;;10.77;;
4206;SDS011;2117;47.972;7.830;2023-01-23T04:06:16;21.67;;;11.37;;
4206;SDS011;2117;47.972;7.830;2023-01-23T04:08:42;18.03;;;9.77;;
4206;SDS011;2117;47.972;7.830;2023-01-23T04:11:08;18.43;;;10.60;;
4206;SDS011;2117;47.972;7.830;2023-01-23T04:13:35;18.47;;;11.17;;
4206;SDS011;2117;47.972;7.830;2023-01-23T04:16:01;15.20;;;9.73;;
4206;SDS011;2117;47.972;7.830;2023-01-23T04:18:28;16.70;;;10.47;;
4206;SDS011;2117;47.972;7.830;2023-01-23T04:20:54;17.10;;;10.20;;
4206;SDS011;2117;47.972;7.830;2023-01-23T04:23:20;18.20;;;10.47;;
4206;SDS011;2117;47.972;7.830;2023-01-23T04:25:46;18.13;;;10.70;;
4206;SDS011;2117;47.972;7.830;2023-01-23T04:28:13;15.40;;;10.67;;
4206;SDS011;2117;47.972;7.830;2023-01-23T04:30:39;18.37;;;11.87;;
4206;SDS011;2117;47.972;7.830;2023-01-23T04:33:04;19.50;;;11.33;;
4206;SDS011;2117;47.972;7.830;2023-01-23T04:35:30;17.90;;;11.00;;
4206;SDS011;2117;47.972;7.830;2023-01-23T04:37:56;17.77;;;10.07;;
4206;SDS011;2117;47.972;7.830;2023-01-23T04:40:21;14.63;;;10.50;;
4206;SDS011;2117;47.972;7.830;2023-01-23T04:42:47;17.20;;;10.60;;
4206;SDS011;2117;47.972;7.830;2023-01-23T04:45:13;19.80;;;10.40;;
4206;SDS011;2117;47.972;7.830;2023-01-23T04:47:38;16.60;;;10.50;;
4206;SDS011;2117;47.972;7.830;2023-01-23T04:50:04;15.70;;;10.00;;
4206;SDS011;2117;47.972;7.830;2023-01-23T04:52:30;17.37;;;10.57;;
4206;SDS011;2117;47.972;7.830;2023-01-23T04:54:55;16.33;;;9.40;;
4206;SDS011;2117;47.972;7.830;2023-01-23T04:57:21;16.13;;;10.23;;
4206;SDS011;2117;47.972;7.830;2023-01-23T04:59:47;19.20;;;11.10;;
4206;SDS011;2117;47.972;7.830;2023-01-23T05:02:12;15.70;;;9.63;;
4206;SDS011;2117;47.972;7.830;2023-01-23T05:04:38;16.23;;;9.00;;
4206;SDS011;2117;47.972;7.830;2023-01-23T05:07:03;18.93;;;9.90;;
4206;SDS011;2117;47.972;7.830;2023-01-23T05:09:29;15.00;;;10.07;;
4206;SDS011;2117;47.972;7.830;2023-01-23T05:11:55;15.67;;;10.77;;
4206;SDS011;2117;47.972;7.830;2023-01-23T05:14:20;16.37;;;11.07;;
4206;SDS011;2117;47.972;7.830;2023-01-23T05:16:48;18.97;;;12.20;;
4206;SDS011;2117;47.972;7.830;2023-01-23T05:19:13;19.80;;;11.87;;
4206;SDS011;2117;47.972;7.830;2023-01-23T05:21:39;18.10;;;12.40;;
4206;SDS011;2117;47.972;7.830;2023-01-23T05:24:05;18.60;;;11.00;;
4206;SDS011;2117;47.972;7.830;2023-01-23T05:26:30;18.53;;;11.47;;
4206;SDS011;2117;47.972;7.830;2023-01-23T05:28:56;15.50;;;10.27;;
4206;SDS011;2117;47.972;7.830;2023-01-23T05:31:21;18.87;;;11.27;;
4206;SDS011;2117;47.972;7.830;2023-01-23T05:33:47;14.87;;;9.83;;
4206;SDS011;2117;47.972;7.830;2023-01-23T05:36:13;17.13;;;11.53;;
4206;SDS011;2117;47.972;7.830;2023-01-23T05:38:38;18.07;;;11.20;;
4206;SDS011;2117;47.972;7.830;2023-01-23T05:41:04;14.37;;;10.27;;
4206;SDS011;2117;47.972;7.830;2023-01-23T05:43:30;19.00;;;9.67;;
4206;SDS011;2117;47.972;7.830;2023-01-23T05:45:57;16.53;;;9.67;;
4206;SDS011;2117;47.972;7.830;2023-01-23T05:48:24;18.03;;;11.90;;
4206;SDS011;2117;47.972;7.830;2023-01-23T05:50:50;20.40;;;11.07;;
4206;SDS011;2117;47.972;7.830;2023-01-23T05:53:15;22.00;;;12.27;;
4206;SDS011;2117;47.972;7.830;2023-01-23T05:55:41;19.60;;;11.43;;
4206;SDS011;2117;47.972;7.830;2023-01-23T05:58:06;16.43;;;11.37;;
4206;SDS011;2117;47.972;7.830;2023-01-23T06:00:32;22.73;;;11.17;;
4206;SDS011;2117;47.972;7.830;2023-01-23T06:02:58;20.50;;;11.50;;
4206;SDS011;2117;47.972;7.830;2023-01-23T06:05:23;16.80;;;10.23;;
4206;SDS011;2117;47.972;7.830;2023-01-23T06:07:49;15.50;;;10.00;;
4206;SDS011;2117;47.972;7.830;2023-01-23T06:10:14;17.83;;;10.40;;
4206;SDS011;2117;47.972;7.830;2023-01-23T06:12:40;18.27;;;9.60;;
4206;SDS011;2117;47.972;7.830;2023-01-23T06:15:05;12.63;;;8.63;;
4206;SDS011;2117;47.972;7.830;2023-01-23T06:17:31;14.60;;;9.70;;
4206;SDS011;2117;47.972;7.830;2023-01-23T06:19:57;15.83;;;8.77;;
4206;SDS011;2117;47.972;7.830;2023-01-23T06:22:22;13.80;;;9.93;;
4206;SDS011;2117;47.972;7.830;2023-01-23T06:24:56;16.07;;;10.60;;
4206;SDS011;2117;47.972;7.830;2023-01-23T06:27:21;14.27;;;9.17;;
4206;SDS011;2117;47.972;7.830;2023-01-23T06:29:47;18.13;;;9.60;;
4206;SDS011;2117;47.972;7.830;2023-01-23T06:32:12;15.40;;;8.73;;
4206;SDS011;2117;47.972;7.830;2023-01-23T06:34:38;15.30;;;9.93;;
4206;SDS011;2117;47.972;7.830;2023-01-23T06:37:03;16.03;;;9.40;;
4206;SDS011;2117;47.972;7.830;2023-01-23T06:39:29;12.80;;;8.77;;
4206;SDS011;2117;47.972;7.830;2023-01-23T06:41:55;17.00;;;9.93;;
4206;SDS011;2117;47.972;7.830;2023-01-23T06:44:21;12.57;;;8.50;;
4206;SDS011;2117;47.972;7.830;2023-01-23T06:46:47;15.87;;;9.20;;
4206;SDS011;2117;47.972;7.830;2023-01-23T06:49:13;15.13;;;8.30;;
4206;SDS011;2117;47.972;7.830;2023-01-23T06:51:39;9.27;;;6.03;;
4206;SDS011;2117;47.972;7.830;2023-01-23T06:54:04;10.27;;;6.20;;
4206;SDS011;2117;47.972;7.830;2023-01-23T06:56:30;6.17;;;4.90;;
4206;SDS011;2117;47.972;7.830;2023-01-23T06:58:56;8.50;;;5.30;;
4206;SDS011;2117;47.972;7.830;2023-01-23T07:01:21;6.50;;;4.20;;
4206;SDS011;2117;47.972;7.830;2023-01-23T07:03:48;4.53;;;2.97;;
4206;SDS011;2117;47.972;7.830;2023-01-23T07:06:14;5.70;;;3.53;;
4206;SDS011;2117;47.972;7.830;2023-01-23T07:08:40;4.23;;;2.77;;
4206;SDS011;2117;47.972;7.830;2023-01-23T07:11:06;5.40;;;3.90;;
4206;SDS011;2117;47.972;7.830;2023-01-23T07:13:32;4.53;;;3.40;;
4206;SDS011;2117;47.972;7.830;2023-01-23T07:15:58;5.97;;;2.93;;
4206;SDS011;2117;47.972;7.830;2023-01-23T07:18:24;4.47;;;2.80;;
4206;SDS011;2117;47.972;7.830;2023-01-23T07:20:52;6.20;;;3.07;;
4206;SDS011;2117;47.972;7.830;2023-01-23T07:23:18;4.53;;;3.10;;
4206;SDS011;2117;47.972;7.830;2023-01-23T07:25:43;5.47;;;3.47;;
4206;SDS011;2117;47.972;7.830;2023-01-23T07:28:09;3.80;;;2.80;;
4206;SDS011;2117;47.972;7.830;2023-01-23T07:30:34;6.47;;;3.30;;
4206;SDS011;2117;47.972;7.830;2023-01-23T07:33:00;5.17;;;3.13;;
4206;SDS011;2117;47.972;7.830;2023-01-23T07:35:26;5.17;;;3.23;;
4206;SDS011;2117;47.972;7.830;2023-01-23T07:37:51;5.70;;;3.30;;
4206;SDS011;2117;47.972;7.830;2023-01-23T07:40:17;5.67;;;3.83;;
4206;SDS011;2117;47.972;7.830;2023-01-23T07:42:43;5.00;;;3.17;;
4206;SDS011;2117;47.972;7.830;2023-01-23T07:45:10;4.67;;;2.90;;
4206;SDS011;2117;47.972;7.830;2023-01-23T07:47:36;4.70;;;2.70;;
4206;SDS011;2117;47.972;7.830;2023-01-23T07:50:04;3.37;;;2.67;;
4206;SDS011;2117;47.972;7.830;2023-01-23T07:52:30;5.37;;;3.30;;
4206;SDS011;2117;47.972;7.830;2023-01-23T07:54:56;4.80;;;2.73;;
4206;SDS011;2117;47.972;7.830;2023-01-23T07:57:21;4.77;;;3.73;;
4206;SDS011;2117;47.972;7.830;2023-01-23T07:59:47;14.70;;;3.17;;
4206;SDS011;2117;47.972;7.830;2023-01-23T08:02:12;5.63;;;2.83;;
4206;SDS011;2117;47.972;7.830;2023-01-23T08:04:38;4.53;;;3.13;;
4206;SDS011;2117;47.972;7.830;2023-01-23T08:07:04;4.70;;;3.03;;
4206;SDS011;2117;47.972;7.830;2023-01-23T08:09:30;6.13;;;3.40;;
4206;SDS011;2117;47.972;7.830;2023-01-23T08:11:55;5.07;;;3.10;;
4206;SDS011;2117;47.972;7.830;2023-01-23T08:14:21;5.07;;;2.40;;
4206;SDS011;2117;47.972;7.830;2023-01-23T08:16:50;4.33;;;3.10;;
4206;SDS011;2117;47.972;7.830;2023-01-23T08:19:16;4.53;;;2.50;;
4206;SDS011;2117;47.972;7.830;2023-01-23T08:21:42;5.03;;;3.00;;
4206;SDS011;2117;47.972;7.830;2023-01-23T08:24:09;5.23;;;3.70;;
4206;SDS011;2117;47.972;7.830;2023-01-23T08:26:36;3.87;;;2.57;;
4206;SDS011;2117;47.972;7.830;2023-01-23T08:29:02;4.43;;;2.87;;
4206;SDS011;2117;47.972;7.830;2023-01-23T08:31:27;4.47;;;2.73;;
4206;SDS011;2117;47.972;7.830;2023-01-23T08:33:54;4.80;;;3.10;;
4206;SDS011;2117;47.972;7.830;2023-01-23T08:36:19;5.40;;;2.80;;
4206;SDS011;2117;47.972;7.830;2023-01-23T08:38:45;3.47;;;2.47;;
4206;SDS011;2117;47.972;7.830;2023-01-23T08:41:11;4.50;;;2.47;;
4206;SDS011;2117;47.972;7.830;2023-01-23T08:43:37;10.80;;;2.80;;
4206;SDS011;2117;47.972;7.830;2023-01-23T08:46:02;5.20;;;2.70;;
4206;SDS011;2117;47.972;7.830;2023-01-23T08:48:28;4.20;;;3.13;;
4206;SDS011;2117;47.972;7.830;2023-01-23T08:51:01;4.80;;;3.40;;
4206;SDS011;2117;47.972;7.830;2023-01-23T08:53:28;4.97;;;3.13;;
4206;SDS011;2117;47.972;7.830;2023-01-23T08:56:14;5.40;;;2.90;;
4206;SDS011;2117;47.972;7.830;2023-01-23T08:58:41;5.10;;;3.40;;
4206;SDS011;2117;47.972;7.830;2023-01-23T09:01:13;13.73;;;4.00;;
4206;SDS011;2117;47.972;7.830;2023-01-23T09:03:41;7.30;;;3.50;;
4206;SDS011;2117;47.972;7.830;2023-01-23T09:06:07;5.60;;;3.17;;
4206;SDS011;2117;47.972;7.830;2023-01-23T09:08:34;8.50;;;3.83;;
4206;SDS011;2117;47.972;7.830;2023-01-23T09:11:01;5.03;;;3.30;;
4206;SDS011;2117;47.972;7.830;2023-01-23T09:13:28;6.33;;;3.30;;
4206;SDS011;2117;47.972;7.830;2023-01-23T09:15:54;6.20;;;3.40;;
4206;SDS011;2117;47.972;7.830;2023-01-23T09:18:20;3.37;;;2.90;;
4206;SDS011;2117;47.972;7.830;2023-01-23T09:20:54;4.30;;;3.10;;
4206;SDS011;2117;47.972;7.830;2023-01-23T09:23:21;5.20;;;3.23;;
4206;SDS011;2117;47.972;7.830;2023-01-23T09:25:46;5.57;;;3.90;;
4206;SDS011;2117;47.972;7.830;2023-01-23T09:28:12;4.93;;;3.20;;
4206;SDS011;2117;47.972;7.830;2023-01-23T09:30:37;5.27;;;3.33;;
4206;SDS011;2117;47.972;7.830;2023-01-23T09:33:03;6.70;;;3.90;;
4206;SDS011;2117;47.972;7.830;2023-01-23T09:35:29;6.97;;;3.90;;
4206;SDS011;2117;47.972;7.830;2023-01-23T09:37:54;6.70;;;3.93;;
4206;SDS011;2117;47.972;7.830;2023-01-23T09:40:35;6.50;;;3.63;;
4206;SDS011;2117;47.972;7.830;2023-01-23T09:43:14;5.87;;;3.73;;
4206;SDS011;2117;47.972;7.830;2023-01-23T09:45:52;6.97;;;4.70;;
4206;SDS011;2117;47.972;7.830;2023-01-23T09:48:25;8.00;;;4.63;;
4206;SDS011;2117;47.972;7.830;2023-01-23T09:51:00;8.30;;;4.90;;
4206;SDS011;2117;47.972;7.830;2023-01-23T09:53:33;8.23;;;5.20;;
4206;SDS011;2117;47.972;7.830;2023-01-23T09:58:40;11.03;;;5.00;;
4206;SDS011;2117;47.972;7.830;2023-01-23T10:01:11;8.93;;;5.40;;
4206;SDS011;2117;47.972;7.830;2023-01-23T10:03:37;7.33;;;4.43;;
4206;SDS011;2117;47.972;7.830;2023-01-23T10:06:12;8.30;;;4.67;;
4206;SDS011;2117;47.972;7.830;2023-01-23T10:17:09;8.03;;;5.37;;
4206;SDS011;2117;47.972;7.830;2023-01-23T10:25:32;11.53;;;6.77;;
4206;SDS011;2117;47.972;7.830;2023-01-23T10:28:37;6.30;;;4.77;;
4206;SDS011;2117;47.972;7.830;2023-01-23T10:34:06;8.07;;;4.80;;
4206;SDS011;2117;47.972;7.830;2023-01-23T10:37:21;8.67;;;4.30;;
4206;SDS011;2117;47.972;7.830;2023-01-23T10:39:59;9.73;;;4.97;;
4206;SDS011;2117;47.972;7.830;2023-01-23T10:42:29;8.93;;;4.77;;
4206;SDS011;2117;47.972;7.830;2023-01-23T10:44:55;8.33;;;4.10;;
4206;SDS011;2117;47.972;7.830;2023-01-23T10:47:40;9.73;;;4.73;;
4206;SDS011;2117;47.972;7.830;2023-01-23T10:50:08;12.93;;;4.73;;
4206;SDS011;2117;47.972;7.830;2023-01-23T10:55:02;7.10;;;4.20;;
4206;SDS011;2117;47.972;7.830;2023-01-23T10:57:34;26.53;;;4.47;;
4206;SDS011;2117;47.972;7.830;2023-01-23T11:00:52;7.07;;;4.73;;
4206;SDS011;2117;47.972;7.830;2023-01-23T11:06:05;8.17;;;4.33;;
4206;SDS011;2117;47.972;7.830;2023-01-23T11:08:37;7.40;;;4.77;;
4206;SDS011;2117;47.972;7.830;2023-01-23T11:14:03;8.17;;;4.33;;
4206;SDS011;2117;47.972;7.830;2023-01-23T11:16:37;7.20;;;4.97;;
4206;SDS011;2117;47.972;7.830;2023-01-23T11:21:37;8.13;;;5.57;;
4206;SDS011;2117;47.972;7.830;2023-01-23T11:26:57;6.80;;;4.03;;
4206;SDS011;2117;47.972;7.830;2023-01-23T11:29:39;10.97;;;5.20;;
4206;SDS011;2117;47.972;7.830;2023-01-23T11:32:25;8.30;;;5.03;;
4206;SDS011;2117;47.972;7.830;2023-01-23T11:34:59;9.70;;;5.87;;
4206;SDS011;2117;47.972;7.830;2023-01-23T11:37:48;8.90;;;4.53;;
4206;SDS011;2117;47.972;7.830;2023-01-23T11:40:18;10.17;;;4.90;;
4206;SDS011;2117;47.972;7.830;2023-01-23T11:42:44;7.60;;;4.90;;
4206;SDS011;2117;47.972;7.830;2023-01-23T11:45:33;10.17;;;5.80;;
4206;SDS011;2117;47.972;7.830;2023-01-23T11:50:49;8.07;;;5.70;;
4206;SDS011;2117;47.972;7.830;2023-01-23T11:53:27;7.90;;;5.30;;
4206;SDS011;2117;47.972;7.830;2023-01-23T11:58:35;7.73;;;5.10;;
4206;SDS011;2117;47.972;7.830;2023-01-23T12:07:29;6.83;;;4.77;;
4206;SDS011;2117;47.972;7.830;2023-01-23T12:10:22;31.77;;;4.90;;
4206;SDS011;2117;47.972;7.830;2023-01-23T12:15:41;9.77;;;5.73;;
4206;SDS011;2117;47.972;7.830;2023-01-23T12:18:33;7.97;;;5.10;;
4206;SDS011;2117;47.972;7.830;2023-01-23T12:23:51;8.20;;;5.80;;
4206;SDS011;2117;47.972;7.830;2023-01-23T12:26:31;9.30;;;5.50;;
4206;SDS011;2117;47.972;7.830;2023-01-23T12:31:34;11.97;;;3.93;;
4206;SDS011;2117;47.972;7.830;2023-01-23T12:34:22;8.67;;;5.53;;
4206;SDS011;2117;47.972;7.830;2023-01-23T12:45:19;7.67;;;5.43;;
4206;SDS011;2117;47.972;7.830;2023-01-23T12:53:24;11.50;;;5.70;;
4206;SDS011;2117;47.972;7.830;2023-01-23T12:58:27;8.97;;;4.57;;
4206;SDS011;2117;47.972;7.830;2023-01-23T13:03:38;8.20;;;5.33;;
4206;SDS011;2117;47.972;7.830;2023-01-23T13:14:43;10.27;;;5.80;;
4206;SDS011;2117;47.972;7.830;2023-01-23T13:28:43;8.97;;;5.03;;
4206;SDS011;2117;47.972;7.830;2023-01-23T13:31:31;11.50;;;6.27;;
4206;SDS011;2117;47.972;7.830;2023-01-23T13:36:41;8.73;;;6.07;;
4206;SDS011;2117;47.972;7.830;2023-01-23T13:45:12;13.73;;;6.23;;
4206;SDS011;2117;47.972;7.830;2023-01-23T13:47:45;10.33;;;5.70;;
4206;SDS011;2117;47.972;7.830;2023-01-23T13:50:48;9.93;;;6.50;;
4206;SDS011;2117;47.972;7.830;2023-01-23T13:53:23;12.37;;;6.27;;
4206;SDS011;2117;47.972;7.830;2023-01-23T13:56:20;8.77;;;5.20;;
4206;SDS011;2117;47.972;7.830;2023-01-23T13:59:08;8.43;;;5.93;;
4206;SDS011;2117;47.972;7.830;2023-01-23T14:01:53;16.90;;;6.73;;
4206;SDS011;2117;47.972;7.830;2023-01-23T14:04:54;9.43;;;5.40;;
4206;SDS011;2117;47.972;7.830;2023-01-23T14:07:39;11.53;;;5.93;;
4206;SDS011;2117;47.972;7.830;2023-01-23T14:10:30;17.33;;;6.53;;
4206;SDS011;2117;47.972;7.830;2023-01-23T14:13:06;10.17;;;5.50;;
4206;SDS011;2117;47.972;7.830;2023-01-23T14:15:34;13.23;;;6.57;;
4206;SDS011;2117;47.972;7.830;2023-01-23T14:18:26;13.17;;;6.30;;
4206;SDS011;2117;47.972;7.830;2023-01-23T14:21:04;8.93;;;6.27;;
4206;SDS011;2117;47.972;7.830;2023-01-23T14:23:39;14.83;;;6.20;;
4206;SDS011;2117;47.972;7.830;2023-01-23T14:26:07;9.33;;;6.00;;
4206;SDS011;2117;47.972;7.830;2023-01-23T14:28:38;15.77;;;5.87;;
4206;SDS011;2117;47.972;7.830;2023-01-23T14:31:05;11.37;;;6.47;;
4206;SDS011;2117;47.972;7.830;2023-01-23T14:33:38;12.10;;;6.80;;
4206;SDS011;2117;47.972;7.830;2023-01-23T14:36:05;9.70;;;6.27;;
4206;SDS011;2117;47.972;7.830;2023-01-23T14:38:40;9.63;;;5.63;;
4206;SDS011;2117;47.972;7.830;2023-01-23T14:41:09;10.67;;;7.10;;
4206;SDS011;2117;47.972;7.830;2023-01-23T14:43:35;11.03;;;7.00;;
4206;SDS011;2117;47.972;7.830;2023-01-23T14:46:15;14.40;;;7.87;;
4206;SDS011;2117;47.972;7.830;2023-01-23T14:48:43;9.83;;;6.43;;
4206;SDS011;2117;47.972;7.830;2023-01-23T14:53:55;14.07;;;7.90;;
4206;SDS011;2117;47.972;7.830;2023-01-23T14:56:24;12.07;;;6.60;;
4206;SDS011;2117;47.972;7.830;2023-01-23T14:59:05;12.20;;;6.60;;
4206;SDS011;2117;47.972;7.830;2023-01-23T15:01:37;12.10;;;7.87;;
4206;SDS011;2117;47.972;7.830;2023-01-23T15:04:04;17.00;;;6.87;;
4206;SDS011;2117;47.972;7.830;2023-01-23T15:06:43;22.10;;;8.80;;
4206;SDS011;2117;47.972;7.830;2023-01-23T15:09:17;10.17;;;6.00;;
4206;SDS011;2117;47.972;7.830;2023-01-23T15:11:45;15.83;;;7.90;;
4206;SDS011;2117;47.972;7.830;2023-01-23T15:14:21;10.13;;;7.30;;
4206;SDS011;2117;47.972;7.830;2023-01-23T15:16:57;12.80;;;6.77;;
4206;SDS011;2117;47.972;7.830;2023-01-23T15:19:24;10.43;;;6.37;;
4206;SDS011;2117;47.972;7.830;2023-01-23T15:22:00;9.77;;;6.37;;
4206;SDS011;2117;47.972;7.830;2023-01-23T15:24:40;12.07;;;6.93;;
4206;SDS011;2117;47.972;7.830;2023-01-23T15:30:41;14.70;;;7.00;;
4206;SDS011;2117;47.972;7.830;2023-01-23T15:32:54;10.03;;;6.87;;
4206;SDS011;2117;47.972;7.830;2023-01-23T15:35:20;10.00;;;6.70;;
4206;SDS011;2117;47.972;7.830;2023-01-23T15:37:46;10.90;;;6.90;;
4206;SDS011;2117;47.972;7.830;2023-01-23T15:40:16;12.27;;;8.43;;
4206;SDS011;2117;47.972;7.830;2023-01-23T15:42:59;14.40;;;8.07;;
4206;SDS011;2117;47.972;7.830;2023-01-23T15:45:26;12.70;;;7.63;;
4206;SDS011;2117;47.972;7.830;2023-01-23T15:47:52;13.03;;;8.33;;
4206;SDS011;2117;47.972;7.830;2023-01-23T15:50:18;17.27;;;9.33;;
4206;SDS011;2117;47.972;7.830;2023-01-23T15:52:44;20.27;;;10.40;;
4206;SDS011;2117;47.972;7.830;2023-01-23T15:55:12;19.13;;;11.07;;
4206;SDS011;2117;47.972;7.830;2023-01-23T15:57:38;17.90;;;9.00;;
4206;SDS011;2117;47.972;7.830;2023-01-23T16:00:17;17.73;;;10.03;;
4206;SDS011;2117;47.972;7.830;2023-01-23T16:02:48;19.67;;;10.37;;
4206;SDS011;2117;47.972;7.830;2023-01-23T16:05:16;15.47;;;9.87;;
4206;SDS011;2117;47.972;7.830;2023-01-23T16:07:45;18.03;;;10.50;;
4206;SDS011;2117;47.972;7.830;2023-01-23T16:10:22;14.73;;;9.30;;
4206;SDS011;2117;47.972;7.830;2023-01-23T16:12:50;18.90;;;10.87;;
4206;SDS011;2117;47.972;7.830;2023-01-23T16:15:19;19.30;;;9.77;;
4206;SDS011;2117;47.972;7.830;2023-01-23T16:17:46;19.17;;;10.40;;
4206;SDS011;2117;47.972;7.830;2023-01-23T16:20:31;20.30;;;10.43;;
4206;SDS011;2117;47.972;7.830;2023-01-23T16:23:15;21.63;;;10.20;;
4206;SDS011;2117;47.972;7.830;2023-01-23T16:25:44;20.90;;;10.97;;
4206;SDS011;2117;47.972;7.830;2023-01-23T16:28:21;19.87;;;9.97;;
4206;SDS011;2117;47.972;7.830;2023-01-23T16:30:48;14.77;;;9.10;;
4206;SDS011;2117;47.972;7.830;2023-01-23T16:33:15;23.30;;;9.40;;
4206;SDS011;2117;47.972;7.830;2023-01-23T16:35:41;20.50;;;10.10;;
4206;SDS011;2117;47.972;7.830;2023-01-23T16:38:13;16.93;;;10.37;;
4206;SDS011;2117;47.972;7.830;2023-01-23T16:40:46;23.43;;;11.43;;
4206;SDS011;2117;47.972;7.830;2023-01-23T16:43:15;19.67;;;10.37;;
4206;SDS011;2117;47.972;7.830;2023-01-23T16:45:41;19.33;;;10.83;;
4206;SDS011;2117;47.972;7.830;2023-01-23T16:48:06;16.93;;;11.17;;
4206;SDS011;2117;47.972;7.830;2023-01-23T16:50:33;19.83;;;9.57;;
4206;SDS011;2117;47.972;7.830;2023-01-23T16:53:09;18.37;;;10.27;;
4206;SDS011;2117;47.972;7.830;2023-01-23T16:55:53;20.00;;;10.23;;
4206;SDS011;2117;47.972;7.830;2023-01-23T16:58:21;18.90;;;10.10;;
4206;SDS011;2117;47.972;7.830;2023-01-23T17:00:50;17.43;;;10.70;;
4206;SDS011;2117;47.972;7.830;2023-01-23T17:03:21;21.40;;;11.63;;
4206;SDS011;2117;47.972;7.830;2023-01-23T17:05:48;26.37;;;11.17;;
4206;SDS011;2117;47.972;7.830;2023-01-23T17:08:15;19.50;;;10.03;;
4206;SDS011;2117;47.972;7.830;2023-01-23T17:10:42;21.73;;;12.13;;
4206;SDS011;2117;47.972;7.830;2023-01-23T17:13:08;17.37;;;9.90;;
4206;SDS011;2117;47.972;7.830;2023-01-23T17:15:35;16.60;;;10.03;;
4206;SDS011;2117;47.972;7.830;2023-01-23T17:18:01;18.07;;;10.30;;
4206;SDS011;2117;47.972;7.830;2023-01-23T17:20:27;19.27;;;10.10;;
4206;SDS011;2117;47.972;7.830;2023-01-23T17:22:53;21.17;;;10.97;;
4206;SDS011;2117;47.972;7.830;2023-01-23T17:25:20;21.23;;;12.53;;
4206;SDS011;2117;47.972;7.830;2023-01-23T17:27:47;18.20;;;10.57;;
4206;SDS011;2117;47.972;7.830;2023-01-23T17:30:17;19.93;;;10.80;;
4206;SDS011;2117;47.972;7.830;2023-01-23T17:32:45;19.07;;;11.00;;
4206;SDS011;2117;47.972;7.830;2023-01-23T17:35:21;23.53;;;11.83;;
4206;SDS011;2117;47.972;7.830;2023-01-23T17:37:51;25.43;;;9.87;;
4206;SDS011;2117;47.972;7.830;2023-01-23T17:40:23;19.83;;;10.00;;
4206;SDS011;2117;47.972;7.830;2023-01-23T17:42:48;20.30;;;12.10;;
4206;SDS011;2117;47.972;7.830;2023-01-23T17:45:15;18.30;;;10.43;;
4206;SDS011;2117;47.972;7.830;2023-01-23T17:47:46;19.70;;;10.57;;
4206;SDS011;2117;47.972;7.830;2023-01-23T17:50:23;16.50;;;10.40;;
4206;SDS011;2117;47.972;7.830;2023-01-23T17:52:50;21.30;;;12.07;;
4206;SDS011;2117;47.972;7.830;2023-01-23T17:55:18;18.23;;;11.17;;
4206;SDS011;2117;47.972;7.830;2023-01-23T17:57:46;19.90;;;11.70;;
4206;SDS011;2117;47.972;7.830;2023-01-23T18:00:12;20.07;;;10.20;;
4206;SDS011;2117;47.972;7.830;2023-01-23T18:02:42;18.60;;;11.67;;
4206;SDS011;2117;47.972;7.830;2023-01-23T18:05:10;13.03;;;9.43;;
4206;SDS011;2117;47.972;7.830;2023-01-23T18:07:37;21.70;;;11.73;;
4206;SDS011;2117;47.972;7.830;2023-01-23T18:10:03;20.03;;;11.50;;
4206;SDS011;2117;47.972;7.830;2023-01-23T18:12:37;20.93;;;12.53;;
4206;SDS011;2117;47.972;7.830;2023-01-23T18:15:13;24.80;;;11.97;;
4206;SDS011;2117;47.972;7.830;2023-01-23T18:17:47;22.77;;;12.60;;
4206;SDS011;2117;47.972;7.830;2023-01-23T18:20:20;19.70;;;12.10;;
4206;SDS011;2117;47.972;7.830;2023-01-23T18:22:47;18.07;;;11.17;;
4206;SDS011;2117;47.972;7.830;2023-01-23T18:25:16;17.50;;;10.53;;
4206;SDS011;2117;47.972;7.830;2023-01-23T18:27:43;22.10;;;12.03;;
4206;SDS011;2117;47.972;7.830;2023-01-23T18:41:54;19.80;;;11.50;;
4206;SDS011;2117;47.972;7.830;2023-01-23T18:44:24;19.50;;;10.33;;
4206;SDS011;2117;47.972;7.830;2023-01-23T18:46:50;23.97;;;12.97;;
4206;SDS011;2117;47.972;7.830;2023-01-23T18:49:16;22.10;;;12.50;;
4206;SDS011;2117;47.972;7.830;2023-01-23T18:51:55;25.93;;;14.03;;
4206;SDS011;2117;47.972;7.830;2023-01-23T18:57:15;16.77;;;10.67;;
4206;SDS011;2117;47.972;7.830;2023-01-23T19:06:22;22.00;;;11.60;;
4206;SDS011;2117;47.972;7.830;2023-01-23T19:08:50;20.97;;;11.87;;
4206;SDS011;2117;47.972;7.830;2023-01-23T19:16:57;16.57;;;11.37;;
4206;SDS011;2117;47.972;7.830;2023-01-23T19:19:30;18.33;;;12.00;;
4206;SDS011;2117;47.972;7.830;2023-01-23T19:22:19;18.53;;;10.60;;
4206;SDS011;2117;47.972;7.830;2023-01-23T19:24:45;17.27;;;12.27;;
4206;SDS011;2117;47.972;7.830;2023-01-23T19:27:29;21.87;;;11.37;;
4206;SDS011;2117;47.972;7.830;2023-01-23T19:29:57;18.57;;;10.90;;
4206;SDS011;2117;47.972;7.830;2023-01-23T19:32:23;20.67;;;11.90;;
4206;SDS011;2117;47.972;7.830;2023-01-23T19:34:48;20.93;;;11.93;;
4206;SDS011;2117;47.972;7.830;2023-01-23T19:37:14;23.23;;;12.13;;
4206;SDS011;2117;47.972;7.830;2023-01-23T19:39:40;18.83;;;11.60;;
4206;SDS011;2117;47.972;7.830;2023-01-23T19:42:10;20.30;;;12.67;;
4206;SDS011;2117;47.972;7.830;2023-01-23T19:44:38;17.20;;;11.10;;
4206;SDS011;2117;47.972;7.830;2023-01-23T19:47:03;21.70;;;12.23;;
4206;SDS011;2117;47.972;7.830;2023-01-23T19:49:30;23.57;;;12.10;;
4206;SDS011;2117;47.972;7.830;2023-01-23T19:51:56;26.57;;;12.90;;
4206;SDS011;2117;47.972;7.830;2023-01-23T19:54:21;22.20;;;13.90;;
4206;SDS011;2117;47.972;7.830;2023-01-23T19:56:47;21.53;;;12.13;;
4206;SDS011;2117;47.972;7.830;2023-01-23T19:59:12;19.30;;;12.90;;
4206;SDS011;2117;47.972;7.830;2023-01-23T20:01:44;25.13;;;14.20;;